sensor_id;sensor_type;location;lat;lon;timestamp;P1;durP1;ratioP1;P2;durP2;ratioP2
22107;SDS011;11220;48.812;9.128;2023-04-29T00:00:36;0.13;;;0.10;;
22107;SDS011;11220;48.812;9.128;2023-04-29T00:03:01;0.10;;;0.10;;
22107;SDS011;11220;48.812;9.128;2023-04-29T00:05:27;0.22;;;0.20;;
22107;SDS011;11220;48.812;9.128;2023-04-29T00:07:52;0.20;;;0.17;;
22107;SDS011;11220;48.812;9.128;2023-04-29T00:10:18;0.22;;;0.20;;
22107;SDS011;11220;48.812;9.128;2023-04-29T00:12:43;0.20;;;0.20;;
22107;SDS011;11220;48.812;9.128;2023-04-29T00:15:09;0.55;;;0.20;;
22107;SDS011;11220;48.812;9.128;2023-04-29T00:17:35;0.10;;;0.10;;
22107;SDS011;11220;48.812;9.128;2023-04-29T00:20:01;0.25;;;0.17;;
22107;SDS011;11220;48.812;9.128;2023-04-29T00:22:27;0.25;;;0.10;;
22107;SDS011;11220;48.812;9.128;2023-04-29T00:24:53;0.20;;;0.20;;
22107;SDS011;11220;48.812;9.128;2023-04-29T00:27:18;0.10;;;0.00;;
22107;SDS011;11220;48.812;9.128;2023-04-29T00:29:44;0.20;;;0.17;;
22107;SDS011;11220;48.812;9.128;2023-04-29T00:32:09;0.10;;;0.10;;
22107;SDS011;11220;48.812;9.128;2023-04-29T00:34:35;0.20;;;0.20;;
22107;SDS011;11220;48.812;9.128;2023-04-29T00:37:00;0.10;;;0.10;;
22107;SDS011;11220;48.812;9.128;2023-04-29T00:39:26;0.20;;;0.10;;
22107;SDS011;11220;48.812;9.128;2023-04-29T00:41:51;0.10;;;0.10;;
22107;SDS011;11220;48.812;9.128;2023-04-29T00:44:17;0.10;;;0.10;;
22107;SDS011;11220;48.812;9.128;2023-04-29T00:46:43;0.10;;;0.10;;
22107;SDS011;11220;48.812;9.128;2023-04-29T00:49:08;0.10;;;0.10;;
22107;SDS011;11220;48.812;9.128;2023-04-29T00:51:35;0.10;;;0.10;;
22107;SDS011;11220;48.812;9.128;2023-04-29T00:54:02;0.50;;;0.20;;
22107;SDS011;11220;48.812;9.128;2023-04-29T00:56:28;0.35;;;0.20;;
22107;SDS011;11220;48.812;9.128;2023-04-29T00:58:56;0.68;;;0.17;;
22107;SDS011;11220;48.812;9.128;2023-04-29T01:01:22;0.10;;;0.10;;
22107;SDS011;11220;48.812;9.128;2023-04-29T01:03:48;0.10;;;0.10;;
22107;SDS011;11220;48.812;9.128;2023-04-29T01:08:49;0.20;;;0.20;;
22107;SDS011;11220;48.812;9.128;2023-04-29T01:11:26;0.20;;;0.10;;
22107;SDS011;11220;48.812;9.128;2023-04-29T01:14:00;0.10;;;0.10;;
22107;SDS011;11220;48.812;9.128;2023-04-29T01:16:37;0.10;;;0.10;;
22107;SDS011;11220;48.812;9.128;2023-04-29T01:19:23;0.10;;;0.10;;
22107;SDS011;11220;48.812;9.128;2023-04-29T01:22:04;0.10;;;0.10;;
22107;SDS011;11220;48.812;9.128;2023-04-29T01:24:29;0.30;;;0.10;;
22107;SDS011;11220;48.812;9.128;2023-04-29T01:26:56;0.10;;;0.10;;
22107;SDS011;11220;48.812;9.128;2023-04-29T01:29:47;0.10;;;0.10;;
22107;SDS011;11220;48.812;9.128;2023-04-29T01:38:06;0.10;;;0.10;;
22107;SDS011;11220;48.812;9.128;2023-04-29T01:40:47;0.10;;;0.10;;
22107;SDS011;11220;48.812;9.128;2023-04-29T01:43:23;0.10;;;0.10;;
22107;SDS011;11220;48.812;9.128;2023-04-29T01:45:52;0.17;;;0.17;;
22107;SDS011;11220;48.812;9.128;2023-04-29T01:48:21;0.10;;;0.10;;
22107;SDS011;11220;48.812;9.128;2023-04-29T01:50:47;0.05;;;0.05;;
22107;SDS011;11220;48.812;9.128;2023-04-29T01:53:12;0.57;;;0.20;;
22107;SDS011;11220;48.812;9.128;2023-04-29T01:55:38;0.20;;;0.20;;
22107;SDS011;11220;48.812;9.128;2023-04-29T01:58:03;0.20;;;0.10;;
22107;SDS011;11220;48.812;9.128;2023-04-29T02:00:29;0.10;;;0.10;;
22107;SDS011;11220;48.812;9.128;2023-04-29T02:02:54;0.20;;;0.20;;
22107;SDS011;11220;48.812;9.128;2023-04-29T02:05:20;0.20;;;0.10;;
22107;SDS011;11220;48.812;9.128;2023-04-29T02:07:45;0.10;;;0.10;;
22107;SDS011;11220;48.812;9.128;2023-04-29T02:10:11;0.13;;;0.13;;
22107;SDS011;11220;48.812;9.128;2023-04-29T02:12:37;0.10;;;0.10;;
22107;SDS011;11220;48.812;9.128;2023-04-29T02:15:03;0.10;;;0.10;;
22107;SDS011;11220;48.812;9.128;2023-04-29T02:17:29;0.20;;;0.17;;
22107;SDS011;11220;48.812;9.128;2023-04-29T02:19:54;1.02;;;0.20;;
22107;SDS011;11220;48.812;9.128;2023-04-29T02:22:20;0.20;;;0.10;;
22107;SDS011;11220;48.812;9.128;2023-04-29T02:24:46;0.13;;;0.10;;
22107;SDS011;11220;48.812;9.128;2023-04-29T02:27:11;0.10;;;0.10;;
22107;SDS011;11220;48.812;9.128;2023-04-29T02:29:37;0.25;;;0.10;;
22107;SDS011;11220;48.812;9.128;2023-04-29T02:32:03;0.30;;;0.20;;
22107;SDS011;11220;48.812;9.128;2023-04-29T02:34:28;0.10;;;0.10;;
22107;SDS011;11220;48.812;9.128;2023-04-29T02:36:55;0.25;;;0.20;;
22107;SDS011;11220;48.812;9.128;2023-04-29T02:39:21;0.10;;;0.10;;
22107;SDS011;11220;48.812;9.128;2023-04-29T02:41:47;0.10;;;0.10;;
22107;SDS011;11220;48.812;9.128;2023-04-29T02:44:13;0.20;;;0.10;;
22107;SDS011;11220;48.812;9.128;2023-04-29T02:46:38;0.30;;;0.10;;
22107;SDS011;11220;48.812;9.128;2023-04-29T02:49:09;0.10;;;0.10;;
22107;SDS011;11220;48.812;9.128;2023-04-29T02:51:34;0.17;;;0.17;;
22107;SDS011;11220;48.812;9.128;2023-04-29T02:54:00;0.10;;;0.10;;
22107;SDS011;11220;48.812;9.128;2023-04-29T02:56:25;0.20;;;0.20;;
22107;SDS011;11220;48.812;9.128;2023-04-29T02:58:51;0.10;;;0.10;;
22107;SDS011;11220;48.812;9.128;2023-04-29T03:01:17;0.10;;;0.10;;
22107;SDS011;11220;48.812;9.128;2023-04-29T03:03:42;0.10;;;0.10;;
22107;SDS011;11220;48.812;9.128;2023-04-29T03:06:07;0.10;;;0.10;;
22107;SDS011;11220;48.812;9.128;2023-04-29T03:08:33;0.38;;;0.20;;
22107;SDS011;11220;48.812;9.128;2023-04-29T03:10:59;0.13;;;0.10;;
22107;SDS011;11220;48.812;9.128;2023-04-29T03:13:25;0.17;;;0.10;;
22107;SDS011;11220;48.812;9.128;2023-04-29T03:15:50;0.10;;;0.10;;
22107;SDS011;11220;48.812;9.128;2023-04-29T03:18:16;0.05;;;0.05;;
22107;SDS011;11220;48.812;9.128;2023-04-29T03:20:42;0.10;;;0.10;;
22107;SDS011;11220;48.812;9.128;2023-04-29T03:23:07;0.10;;;0.10;;
22107;SDS011;11220;48.812;9.128;2023-04-29T03:25:33;0.10;;;0.10;;
22107;SDS011;11220;48.812;9.128;2023-04-29T03:27:58;0.15;;;0.15;;
22107;SDS011;11220;48.812;9.128;2023-04-29T03:30:24;0.10;;;0.10;;
22107;SDS011;11220;48.812;9.128;2023-04-29T03:32:49;0.08;;;0.03;;
22107;SDS011;11220;48.812;9.128;2023-04-29T03:35:15;0.17;;;0.17;;
22107;SDS011;11220;48.812;9.128;2023-04-29T03:37:40;0.10;;;0.10;;
22107;SDS011;11220;48.812;9.128;2023-04-29T03:40:08;0.10;;;0.10;;
22107;SDS011;11220;48.812;9.128;2023-04-29T03:42:34;0.10;;;0.10;;
22107;SDS011;11220;48.812;9.128;2023-04-29T03:44:59;0.10;;;0.10;;
22107;SDS011;11220;48.812;9.128;2023-04-29T03:47:25;0.10;;;0.10;;
22107;SDS011;11220;48.812;9.128;2023-04-29T03:49:51;0.10;;;0.00;;
22107;SDS011;11220;48.812;9.128;2023-04-29T03:52:17;0.10;;;0.10;;
22107;SDS011;11220;48.812;9.128;2023-04-29T03:54:42;0.10;;;0.10;;
22107;SDS011;11220;48.812;9.128;2023-04-29T03:57:08;0.10;;;0.10;;
22107;SDS011;11220;48.812;9.128;2023-04-29T03:59:33;0.10;;;0.10;;
22107;SDS011;11220;48.812;9.128;2023-04-29T04:01:59;0.10;;;0.10;;
22107;SDS011;11220;48.812;9.128;2023-04-29T04:04:25;0.10;;;0.10;;
22107;SDS011;11220;48.812;9.128;2023-04-29T04:06:50;0.10;;;0.10;;
22107;SDS011;11220;48.812;9.128;2023-04-29T04:09:19;0.08;;;0.08;;
22107;SDS011;11220;48.812;9.128;2023-04-29T04:11:45;0.10;;;0.10;;
22107;SDS011;11220;48.812;9.128;2023-04-29T04:14:11;0.10;;;0.10;;
22107;SDS011;11220;48.812;9.128;2023-04-29T04:16:36;0.20;;;0.10;;
22107;SDS011;11220;48.812;9.128;2023-04-29T04:19:02;0.10;;;0.03;;
22107;SDS011;11220;48.812;9.128;2023-04-29T04:21:28;0.10;;;0.10;;
22107;SDS011;11220;48.812;9.128;2023-04-29T04:23:54;0.10;;;0.10;;
22107;SDS011;11220;48.812;9.128;2023-04-29T04:26:20;0.10;;;0.10;;
22107;SDS011;11220;48.812;9.128;2023-04-29T04:28:46;0.10;;;0.10;;
22107;SDS011;11220;48.812;9.128;2023-04-29T04:31:12;0.10;;;0.10;;
22107;SDS011;11220;48.812;9.128;2023-04-29T04:33:38;0.20;;;0.10;;
22107;SDS011;11220;48.812;9.128;2023-04-29T04:36:05;0.10;;;0.10;;
22107;SDS011;11220;48.812;9.128;2023-04-29T04:38:31;0.10;;;0.10;;
22107;SDS011;11220;48.812;9.128;2023-04-29T04:40:57;0.10;;;0.10;;
22107;SDS011;11220;48.812;9.128;2023-04-29T04:43:22;0.20;;;0.20;;
22107;SDS011;11220;48.812;9.128;2023-04-29T04:45:48;0.10;;;0.10;;
22107;SDS011;11220;48.812;9.128;2023-04-29T04:48:14;0.20;;;0.20;;
22107;SDS011;11220;48.812;9.128;2023-04-29T04:50:39;0.10;;;0.10;;
22107;SDS011;11220;48.812;9.128;2023-04-29T04:53:05;0.10;;;0.10;;
22107;SDS011;11220;48.812;9.128;2023-04-29T04:55:31;0.10;;;0.10;;
22107;SDS011;11220;48.812;9.128;2023-04-29T04:57:57;0.10;;;0.10;;
22107;SDS011;11220;48.812;9.128;2023-04-29T05:00:23;0.15;;;0.10;;
22107;SDS011;11220;48.812;9.128;2023-04-29T05:02:48;0.10;;;0.10;;
22107;SDS011;11220;48.812;9.128;2023-04-29T05:05:14;0.03;;;0.03;;
22107;SDS011;11220;48.812;9.128;2023-04-29T05:07:40;0.20;;;0.10;;
22107;SDS011;11220;48.812;9.128;2023-04-29T05:10:05;0.10;;;0.10;;
22107;SDS011;11220;48.812;9.128;2023-04-29T05:12:32;0.10;;;0.10;;
22107;SDS011;11220;48.812;9.128;2023-04-29T05:14:59;0.10;;;0.10;;
22107;SDS011;11220;48.812;9.128;2023-04-29T05:17:25;0.10;;;0.10;;
22107;SDS011;11220;48.812;9.128;2023-04-29T05:19:50;0.10;;;0.10;;
22107;SDS011;11220;48.812;9.128;2023-04-29T05:22:16;0.10;;;0.10;;
22107;SDS011;11220;48.812;9.128;2023-04-29T05:24:42;0.10;;;0.10;;
22107;SDS011;11220;48.812;9.128;2023-04-29T05:27:07;0.10;;;0.10;;
22107;SDS011;11220;48.812;9.128;2023-04-29T05:29:33;0.10;;;0.10;;
22107;SDS011;11220;48.812;9.128;2023-04-29T05:31:58;0.20;;;0.20;;
22107;SDS011;11220;48.812;9.128;2023-04-29T05:34:24;0.00;;;0.00;;
22107;SDS011;11220;48.812;9.128;2023-04-29T05:36:50;0.10;;;0.10;;
22107;SDS011;11220;48.812;9.128;2023-04-29T05:39:15;0.15;;;0.10;;
22107;SDS011;11220;48.812;9.128;2023-04-29T05:41:41;0.10;;;0.10;;
22107;SDS011;11220;48.812;9.128;2023-04-29T05:44:07;0.10;;;0.10;;
22107;SDS011;11220;48.812;9.128;2023-04-29T05:46:33;0.10;;;0.10;;
22107;SDS011;11220;48.812;9.128;2023-04-29T05:48:58;0.10;;;0.10;;
22107;SDS011;11220;48.812;9.128;2023-04-29T05:51:24;0.13;;;0.13;;
22107;SDS011;11220;48.812;9.128;2023-04-29T05:53:50;0.10;;;0.10;;
22107;SDS011;11220;48.812;9.128;2023-04-29T05:56:15;0.10;;;0.10;;
22107;SDS011;11220;48.812;9.128;2023-04-29T05:58:42;0.13;;;0.13;;
22107;SDS011;11220;48.812;9.128;2023-04-29T06:01:07;0.20;;;0.20;;
22107;SDS011;11220;48.812;9.128;2023-04-29T06:03:32;0.10;;;0.10;;
22107;SDS011;11220;48.812;9.128;2023-04-29T06:05:58;0.20;;;0.20;;
22107;SDS011;11220;48.812;9.128;2023-04-29T06:08:24;0.10;;;0.10;;
22107;SDS011;11220;48.812;9.128;2023-04-29T06:10:50;0.10;;;0.10;;
22107;SDS011;11220;48.812;9.128;2023-04-29T06:13:16;0.20;;;0.20;;
22107;SDS011;11220;48.812;9.128;2023-04-29T06:15:42;1.00;;;0.30;;
22107;SDS011;11220;48.812;9.128;2023-04-29T06:18:08;0.10;;;0.10;;
22107;SDS011;11220;48.812;9.128;2023-04-29T06:20:33;0.15;;;0.15;;
22107;SDS011;11220;48.812;9.128;2023-04-29T06:22:59;0.10;;;0.10;;
22107;SDS011;11220;48.812;9.128;2023-04-29T06:25:24;0.13;;;0.13;;
22107;SDS011;11220;48.812;9.128;2023-04-29T06:27:50;0.20;;;0.20;;
22107;SDS011;11220;48.812;9.128;2023-04-29T06:30:15;0.20;;;0.20;;
22107;SDS011;11220;48.812;9.128;2023-04-29T06:32:41;0.10;;;0.10;;
22107;SDS011;11220;48.812;9.128;2023-04-29T06:35:07;0.20;;;0.20;;
22107;SDS011;11220;48.812;9.128;2023-04-29T06:37:32;0.38;;;0.20;;
22107;SDS011;11220;48.812;9.128;2023-04-29T06:39:58;0.13;;;0.13;;
22107;SDS011;11220;48.812;9.128;2023-04-29T06:42:24;0.20;;;0.20;;
22107;SDS011;11220;48.812;9.128;2023-04-29T06:44:49;0.20;;;0.20;;
22107;SDS011;11220;48.812;9.128;2023-04-29T06:47:15;0.25;;;0.20;;
22107;SDS011;11220;48.812;9.128;2023-04-29T06:49:41;0.22;;;0.20;;
22107;SDS011;11220;48.812;9.128;2023-04-29T06:52:07;0.20;;;0.20;;
22107;SDS011;11220;48.812;9.128;2023-04-29T06:54:33;0.20;;;0.20;;
22107;SDS011;11220;48.812;9.128;2023-04-29T06:56:58;0.20;;;0.20;;
22107;SDS011;11220;48.812;9.128;2023-04-29T06:59:24;0.30;;;0.30;;
22107;SDS011;11220;48.812;9.128;2023-04-29T07:01:50;0.10;;;0.10;;
22107;SDS011;11220;48.812;9.128;2023-04-29T07:04:16;0.20;;;0.20;;
22107;SDS011;11220;48.812;9.128;2023-04-29T07:06:41;0.10;;;0.10;;
22107;SDS011;11220;48.812;9.128;2023-04-29T07:09:10;0.17;;;0.17;;
22107;SDS011;11220;48.812;9.128;2023-04-29T07:11:38;0.20;;;0.20;;
22107;SDS011;11220;48.812;9.128;2023-04-29T07:14:04;0.20;;;0.20;;
22107;SDS011;11220;48.812;9.128;2023-04-29T07:16:29;0.10;;;0.10;;
22107;SDS011;11220;48.812;9.128;2023-04-29T07:18:55;0.17;;;0.17;;
22107;SDS011;11220;48.812;9.128;2023-04-29T07:21:22;0.20;;;0.20;;
22107;SDS011;11220;48.812;9.128;2023-04-29T07:23:48;0.20;;;0.20;;
22107;SDS011;11220;48.812;9.128;2023-04-29T07:26:14;0.30;;;0.10;;
22107;SDS011;11220;48.812;9.128;2023-04-29T07:28:41;0.13;;;0.13;;
22107;SDS011;11220;48.812;9.128;2023-04-29T07:31:07;0.25;;;0.20;;
22107;SDS011;11220;48.812;9.128;2023-04-29T07:33:34;0.28;;;0.20;;
22107;SDS011;11220;48.812;9.128;2023-04-29T07:35:59;0.40;;;0.20;;
22107;SDS011;11220;48.812;9.128;2023-04-29T07:38:26;0.10;;;0.10;;
22107;SDS011;11220;48.812;9.128;2023-04-29T07:40:51;0.20;;;0.20;;
22107;SDS011;11220;48.812;9.128;2023-04-29T07:43:17;0.05;;;0.05;;
22107;SDS011;11220;48.812;9.128;2023-04-29T07:45:43;0.13;;;0.13;;
22107;SDS011;11220;48.812;9.128;2023-04-29T07:48:09;0.10;;;0.10;;
22107;SDS011;11220;48.812;9.128;2023-04-29T07:50:34;0.20;;;0.20;;
22107;SDS011;11220;48.812;9.128;2023-04-29T07:53:03;0.20;;;0.17;;
22107;SDS011;11220;48.812;9.128;2023-04-29T07:55:29;0.20;;;0.17;;
22107;SDS011;11220;48.812;9.128;2023-04-29T07:57:55;0.50;;;0.10;;
22107;SDS011;11220;48.812;9.128;2023-04-29T08:00:21;0.10;;;0.10;;
22107;SDS011;11220;48.812;9.128;2023-04-29T08:02:50;0.20;;;0.20;;
22107;SDS011;11220;48.812;9.128;2023-04-29T08:05:16;0.10;;;0.10;;
22107;SDS011;11220;48.812;9.128;2023-04-29T08:07:43;0.20;;;0.20;;
22107;SDS011;11220;48.812;9.128;2023-04-29T08:10:08;0.28;;;0.28;;
22107;SDS011;11220;48.812;9.128;2023-04-29T08:12:34;0.10;;;0.10;;
22107;SDS011;11220;48.812;9.128;2023-04-29T08:14:59;0.20;;;0.20;;
22107;SDS011;11220;48.812;9.128;2023-04-29T08:17:25;0.30;;;0.20;;
22107;SDS011;11220;48.812;9.128;2023-04-29T08:19:51;0.25;;;0.20;;
22107;SDS011;11220;48.812;9.128;2023-04-29T08:22:16;0.20;;;0.20;;
22107;SDS011;11220;48.812;9.128;2023-04-29T08:24:41;0.20;;;0.20;;
22107;SDS011;11220;48.812;9.128;2023-04-29T08:27:09;0.30;;;0.30;;
22107;SDS011;11220;48.812;9.128;2023-04-29T08:29:34;0.10;;;0.10;;
22107;SDS011;11220;48.812;9.128;2023-04-29T08:32:00;0.20;;;0.15;;
22107;SDS011;11220;48.812;9.128;2023-04-29T08:34:25;0.10;;;0.10;;
22107;SDS011;11220;48.812;9.128;2023-04-29T08:36:51;0.10;;;0.10;;
22107;SDS011;11220;48.812;9.128;2023-04-29T08:39:17;0.20;;;0.20;;
22107;SDS011;11220;48.812;9.128;2023-04-29T08:41:42;0.17;;;0.10;;
22107;SDS011;11220;48.812;9.128;2023-04-29T08:44:13;0.22;;;0.20;;
22107;SDS011;11220;48.812;9.128;2023-04-29T08:46:41;0.20;;;0.20;;
22107;SDS011;11220;48.812;9.128;2023-04-29T08:49:10;0.25;;;0.20;;
22107;SDS011;11220;48.812;9.128;2023-04-29T08:51:37;0.20;;;0.20;;
22107;SDS011;11220;48.812;9.128;2023-04-29T08:54:03;0.10;;;0.10;;
22107;SDS011;11220;48.812;9.128;2023-04-29T08:56:29;0.25;;;0.25;;
22107;SDS011;11220;48.812;9.128;2023-04-29T08:58:56;0.20;;;0.20;;
22107;SDS011;11220;48.812;9.128;2023-04-29T09:01:22;0.25;;;0.20;;
22107;SDS011;11220;48.812;9.128;2023-04-29T09:03:56;0.60;;;0.20;;
22107;SDS011;11220;48.812;9.128;2023-04-29T09:06:29;0.15;;;0.10;;
22107;SDS011;11220;48.812;9.128;2023-04-29T09:08:57;0.13;;;0.10;;
22107;SDS011;11220;48.812;9.128;2023-04-29T09:11:23;0.30;;;0.25;;
22107;SDS011;11220;48.812;9.128;2023-04-29T09:13:51;0.28;;;0.28;;
22107;SDS011;11220;48.812;9.128;2023-04-29T09:18:47;0.20;;;0.20;;
22107;SDS011;11220;48.812;9.128;2023-04-29T09:21:24;0.20;;;0.20;;
22107;SDS011;11220;48.812;9.128;2023-04-29T09:23:55;0.20;;;0.20;;
22107;SDS011;11220;48.812;9.128;2023-04-29T09:26:22;0.20;;;0.20;;
22107;SDS011;11220;48.812;9.128;2023-04-29T09:29:07;0.10;;;0.10;;
22107;SDS011;11220;48.812;9.128;2023-04-29T09:31:33;0.20;;;0.20;;
22107;SDS011;11220;48.812;9.128;2023-04-29T09:33:59;0.52;;;0.20;;
22107;SDS011;11220;48.812;9.128;2023-04-29T09:39:03;0.20;;;0.20;;
22107;SDS011;11220;48.812;9.128;2023-04-29T09:44:16;0.20;;;0.20;;
22107;SDS011;11220;48.812;9.128;2023-04-29T09:46:42;0.20;;;0.20;;
22107;SDS011;11220;48.812;9.128;2023-04-29T09:49:21;0.20;;;0.20;;
22107;SDS011;11220;48.812;9.128;2023-04-29T09:51:51;0.15;;;0.15;;
22107;SDS011;11220;48.812;9.128;2023-04-29T09:54:21;0.15;;;0.15;;
22107;SDS011;11220;48.812;9.128;2023-04-29T09:56:49;0.20;;;0.20;;
22107;SDS011;11220;48.812;9.128;2023-04-29T09:59:15;0.28;;;0.28;;
22107;SDS011;11220;48.812;9.128;2023-04-29T10:01:41;0.10;;;0.10;;
22107;SDS011;11220;48.812;9.128;2023-04-29T10:04:07;0.32;;;0.28;;
22107;SDS011;11220;48.812;9.128;2023-04-29T10:06:37;0.20;;;0.20;;
22107;SDS011;11220;48.812;9.128;2023-04-29T10:09:05;0.10;;;0.10;;
22107;SDS011;11220;48.812;9.128;2023-04-29T10:11:32;0.20;;;0.20;;
22107;SDS011;11220;48.812;9.128;2023-04-29T10:13:59;0.10;;;0.10;;
22107;SDS011;11220;48.812;9.128;2023-04-29T10:16:27;0.20;;;0.20;;
22107;SDS011;11220;48.812;9.128;2023-04-29T10:18:59;0.20;;;0.20;;
22107;SDS011;11220;48.812;9.128;2023-04-29T10:21:28;0.15;;;0.15;;
22107;SDS011;11220;48.812;9.128;2023-04-29T10:23:55;0.30;;;0.20;;
22107;SDS011;11220;48.812;9.128;2023-04-29T10:26:23;0.30;;;0.20;;
22107;SDS011;11220;48.812;9.128;2023-04-29T10:28:53;0.10;;;0.10;;
22107;SDS011;11220;48.812;9.128;2023-04-29T10:31:20;0.20;;;0.20;;
22107;SDS011;11220;48.812;9.128;2023-04-29T10:33:46;0.20;;;0.20;;
22107;SDS011;11220;48.812;9.128;2023-04-29T10:36:13;0.28;;;0.28;;
22107;SDS011;11220;48.812;9.128;2023-04-29T10:38:41;0.17;;;0.17;;
22107;SDS011;11220;48.812;9.128;2023-04-29T10:41:17;0.20;;;0.20;;
22107;SDS011;11220;48.812;9.128;2023-04-29T10:43:52;0.10;;;0.10;;
22107;SDS011;11220;48.812;9.128;2023-04-29T10:46:19;0.20;;;0.20;;
22107;SDS011;11220;48.812;9.128;2023-04-29T10:48:51;0.30;;;0.30;;
22107;SDS011;11220;48.812;9.128;2023-04-29T10:51:30;0.30;;;0.20;;
22107;SDS011;11220;48.812;9.128;2023-04-29T10:54:11;0.20;;;0.20;;
22107;SDS011;11220;48.812;9.128;2023-04-29T10:56:39;0.10;;;0.10;;
22107;SDS011;11220;48.812;9.128;2023-04-29T10:59:09;0.13;;;0.13;;
22107;SDS011;11220;48.812;9.128;2023-04-29T11:04:10;0.22;;;0.22;;
22107;SDS011;11220;48.812;9.128;2023-04-29T11:09:11;0.20;;;0.20;;
22107;SDS011;11220;48.812;9.128;2023-04-29T11:11:41;0.75;;;0.28;;
22107;SDS011;11220;48.812;9.128;2023-04-29T11:14:20;0.20;;;0.20;;
22107;SDS011;11220;48.812;9.128;2023-04-29T11:17:13;0.20;;;0.20;;
22107;SDS011;11220;48.812;9.128;2023-04-29T11:19:40;0.20;;;0.20;;
22107;SDS011;11220;48.812;9.128;2023-04-29T11:24:50;0.20;;;0.20;;
22107;SDS011;11220;48.812;9.128;2023-04-29T11:27:28;0.20;;;0.20;;
22107;SDS011;11220;48.812;9.128;2023-04-29T11:29:55;0.22;;;0.22;;
22107;SDS011;11220;48.812;9.128;2023-04-29T11:32:22;0.20;;;0.20;;
22107;SDS011;11220;48.812;9.128;2023-04-29T11:34:49;0.20;;;0.10;;
22107;SDS011;11220;48.812;9.128;2023-04-29T11:37:22;0.13;;;0.13;;
22107;SDS011;11220;48.812;9.128;2023-04-29T11:39:49;0.20;;;0.20;;
22107;SDS011;11220;48.812;9.128;2023-04-29T11:42:19;0.20;;;0.20;;
22107;SDS011;11220;48.812;9.128;2023-04-29T11:47:11;0.20;;;0.17;;
22107;SDS011;11220;48.812;9.128;2023-04-29T11:49:37;0.20;;;0.20;;
22107;SDS011;11220;48.812;9.128;2023-04-29T11:52:03;0.20;;;0.20;;
22107;SDS011;11220;48.812;9.128;2023-04-29T11:54:29;0.20;;;0.20;;
22107;SDS011;11220;48.812;9.128;2023-04-29T11:56:55;0.13;;;0.13;;
22107;SDS011;11220;48.812;9.128;2023-04-29T11:59:22;0.20;;;0.20;;
22107;SDS011;11220;48.812;9.128;2023-04-29T12:01:51;0.20;;;0.20;;
22107;SDS011;11220;48.812;9.128;2023-04-29T12:04:17;0.30;;;0.20;;
22107;SDS011;11220;48.812;9.128;2023-04-29T12:06:43;0.30;;;0.30;;
22107;SDS011;11220;48.812;9.128;2023-04-29T12:09:09;0.20;;;0.20;;
22107;SDS011;11220;48.812;9.128;2023-04-29T12:11:35;0.20;;;0.20;;
22107;SDS011;11220;48.812;9.128;2023-04-29T12:14:02;0.38;;;0.20;;
22107;SDS011;11220;48.812;9.128;2023-04-29T12:16:30;0.32;;;0.20;;
22107;SDS011;11220;48.812;9.128;2023-04-29T12:18:56;0.20;;;0.20;;
22107;SDS011;11220;48.812;9.128;2023-04-29T12:21:23;0.30;;;0.20;;
22107;SDS011;11220;48.812;9.128;2023-04-29T12:23:49;0.20;;;0.20;;
22107;SDS011;11220;48.812;9.128;2023-04-29T12:26:15;0.20;;;0.20;;
22107;SDS011;11220;48.812;9.128;2023-04-29T12:28:43;0.30;;;0.20;;
22107;SDS011;11220;48.812;9.128;2023-04-29T12:31:09;0.28;;;0.28;;
22107;SDS011;11220;48.812;9.128;2023-04-29T12:33:38;0.20;;;0.20;;
22107;SDS011;11220;48.812;9.128;2023-04-29T12:36:14;0.43;;;0.30;;
22107;SDS011;11220;48.812;9.128;2023-04-29T12:38:41;0.20;;;0.20;;
22107;SDS011;11220;48.812;9.128;2023-04-29T12:41:07;0.20;;;0.20;;
22107;SDS011;11220;48.812;9.128;2023-04-29T12:43:32;0.20;;;0.20;;
22107;SDS011;11220;48.812;9.128;2023-04-29T12:48:37;0.20;;;0.20;;
22107;SDS011;11220;48.812;9.128;2023-04-29T12:51:10;0.40;;;0.20;;
22107;SDS011;11220;48.812;9.128;2023-04-29T12:53:36;0.30;;;0.28;;
22107;SDS011;11220;48.812;9.128;2023-04-29T12:56:02;0.20;;;0.20;;
22107;SDS011;11220;48.812;9.128;2023-04-29T12:58:28;0.25;;;0.20;;
22107;SDS011;11220;48.812;9.128;2023-04-29T13:00:54;0.25;;;0.25;;
22107;SDS011;11220;48.812;9.128;2023-04-29T13:03:20;0.22;;;0.22;;
22107;SDS011;11220;48.812;9.128;2023-04-29T13:05:45;0.20;;;0.20;;
22107;SDS011;11220;48.812;9.128;2023-04-29T13:08:15;0.40;;;0.28;;
22107;SDS011;11220;48.812;9.128;2023-04-29T13:10:40;0.20;;;0.20;;
22107;SDS011;11220;48.812;9.128;2023-04-29T13:13:06;0.30;;;0.30;;
22107;SDS011;11220;48.812;9.128;2023-04-29T13:15:33;0.30;;;0.30;;
22107;SDS011;11220;48.812;9.128;2023-04-29T13:17:59;0.40;;;0.40;;
22107;SDS011;11220;48.812;9.128;2023-04-29T13:20:25;0.25;;;0.25;;
22107;SDS011;11220;48.812;9.128;2023-04-29T13:22:51;0.38;;;0.38;;
22107;SDS011;11220;48.812;9.128;2023-04-29T13:25:17;0.28;;;0.22;;
22107;SDS011;11220;48.812;9.128;2023-04-29T13:27:42;0.40;;;0.40;;
22107;SDS011;11220;48.812;9.128;2023-04-29T13:30:08;0.30;;;0.30;;
22107;SDS011;11220;48.812;9.128;2023-04-29T13:32:34;0.85;;;0.40;;
22107;SDS011;11220;48.812;9.128;2023-04-29T13:35:00;0.50;;;0.50;;
22107;SDS011;11220;48.812;9.128;2023-04-29T13:37:26;0.90;;;0.70;;
22107;SDS011;11220;48.812;9.128;2023-04-29T13:39:52;1.77;;;1.08;;
22107;SDS011;11220;48.812;9.128;2023-04-29T13:42:17;1.02;;;0.93;;
22107;SDS011;11220;48.812;9.128;2023-04-29T13:44:43;0.95;;;0.80;;
22107;SDS011;11220;48.812;9.128;2023-04-29T13:47:12;1.00;;;0.90;;
22107;SDS011;11220;48.812;9.128;2023-04-29T13:49:41;0.70;;;0.70;;
22107;SDS011;11220;48.812;9.128;2023-04-29T13:52:10;0.90;;;0.80;;
22107;SDS011;11220;48.812;9.128;2023-04-29T13:54:36;1.13;;;0.75;;
22107;SDS011;11220;48.812;9.128;2023-04-29T13:57:02;0.63;;;0.60;;
22107;SDS011;11220;48.812;9.128;2023-04-29T13:59:31;0.50;;;0.50;;
22107;SDS011;11220;48.812;9.128;2023-04-29T14:01:57;0.68;;;0.68;;
22107;SDS011;11220;48.812;9.128;2023-04-29T14:04:23;0.77;;;0.77;;
22107;SDS011;11220;48.812;9.128;2023-04-29T14:06:49;0.80;;;0.80;;
22107;SDS011;11220;48.812;9.128;2023-04-29T14:09:15;0.80;;;0.80;;
22107;SDS011;11220;48.812;9.128;2023-04-29T14:11:42;1.10;;;1.00;;
22107;SDS011;11220;48.812;9.128;2023-04-29T14:14:08;1.40;;;1.05;;
22107;SDS011;11220;48.812;9.128;2023-04-29T14:16:33;0.77;;;0.77;;
22107;SDS011;11220;48.812;9.128;2023-04-29T14:18:59;0.80;;;0.80;;
22107;SDS011;11220;48.812;9.128;2023-04-29T14:21:24;1.08;;;1.00;;
22107;SDS011;11220;48.812;9.128;2023-04-29T14:23:51;0.88;;;0.80;;
22107;SDS011;11220;48.812;9.128;2023-04-29T14:26:16;1.30;;;0.88;;
22107;SDS011;11220;48.812;9.128;2023-04-29T14:28:42;0.80;;;0.80;;
22107;SDS011;11220;48.812;9.128;2023-04-29T14:31:07;1.60;;;1.17;;
22107;SDS011;11220;48.812;9.128;2023-04-29T14:33:33;1.63;;;1.50;;
22107;SDS011;11220;48.812;9.128;2023-04-29T14:35:59;1.75;;;1.40;;
22107;SDS011;11220;48.812;9.128;2023-04-29T14:38:25;1.48;;;1.30;;
22107;SDS011;11220;48.812;9.128;2023-04-29T14:40:51;1.83;;;1.55;;
22107;SDS011;11220;48.812;9.128;2023-04-29T14:43:16;1.60;;;1.50;;
22107;SDS011;11220;48.812;9.128;2023-04-29T14:45:42;2.45;;;1.75;;
22107;SDS011;11220;48.812;9.128;2023-04-29T14:48:09;2.17;;;1.50;;
22107;SDS011;11220;48.812;9.128;2023-04-29T14:50:34;1.77;;;1.50;;
22107;SDS011;11220;48.812;9.128;2023-04-29T14:53:00;2.85;;;1.98;;
22107;SDS011;11220;48.812;9.128;2023-04-29T14:55:26;1.73;;;1.63;;
22107;SDS011;11220;48.812;9.128;2023-04-29T14:57:51;2.78;;;2.22;;
22107;SDS011;11220;48.812;9.128;2023-04-29T15:00:17;2.25;;;2.00;;
22107;SDS011;11220;48.812;9.128;2023-04-29T15:02:43;2.90;;;2.63;;
22107;SDS011;11220;48.812;9.128;2023-04-29T15:05:09;3.15;;;2.53;;
22107;SDS011;11220;48.812;9.128;2023-04-29T15:07:35;2.72;;;2.03;;
22107;SDS011;11220;48.812;9.128;2023-04-29T15:10:00;2.60;;;2.28;;
22107;SDS011;11220;48.812;9.128;2023-04-29T15:12:26;2.47;;;2.10;;
22107;SDS011;11220;48.812;9.128;2023-04-29T15:14:52;2.78;;;1.88;;